sensor_id;sensor_type;location;lat;lon;timestamp;P1;durP1;ratioP1;P2;durP2;ratioP2
42384;SDS011;28042;43.986;22.860;2023-02-28T06:54:24;14.07;;;9.82;;
42384;SDS011;28042;43.986;22.860;2023-02-28T06:56:50;17.33;;;12.65;;
42384;SDS011;28042;43.986;22.860;2023-02-28T06:59:16;17.00;;;12.18;;
42384;SDS011;28042;43.986;22.860;2023-02-28T07:01:41;17.48;;;13.52;;
42384;SDS011;28042;43.986;22.860;2023-02-28T07:04:07;21.90;;;14.57;;
42384;SDS011;28042;43.986;22.860;2023-02-28T07:06:33;25.15;;;17.60;;
42384;SDS011;28042;43.986;22.860;2023-02-28T07:08:59;24.00;;;18.20;;
42384;SDS011;28042;43.986;22.860;2023-02-28T07:11:25;24.60;;;18.30;;
42384;SDS011;28042;43.986;22.860;2023-02-28T07:13:53;26.98;;;19.88;;
42384;SDS011;28042;43.986;22.860;2023-02-28T07:16:19;23.02;;;16.40;;
42384;SDS011;28042;43.986;22.860;2023-02-28T07:18:45;28.85;;;21.15;;
42384;SDS011;28042;43.986;22.860;2023-02-28T07:21:10;24.42;;;18.13;;
42384;SDS011;28042;43.986;22.860;2023-02-28T07:23:36;25.60;;;17.67;;
42384;SDS011;28042;43.986;22.860;2023-02-28T07:26:03;24.97;;;17.93;;
42384;SDS011;28042;43.986;22.860;2023-02-28T07:28:29;26.65;;;19.15;;
42384;SDS011;28042;43.986;22.860;2023-02-28T07:30:55;23.40;;;16.45;;
42384;SDS011;28042;43.986;22.860;2023-02-28T07:33:20;27.05;;;19.05;;
42384;SDS011;28042;43.986;22.860;2023-02-28T07:35:46;36.20;;;22.80;;
42384;SDS011;28042;43.986;22.860;2023-02-28T07:38:11;58.97;;;32.08;;
42384;SDS011;28042;43.986;22.860;2023-02-28T07:40:38;30.90;;;21.77;;
42384;SDS011;28042;43.986;22.860;2023-02-28T07:43:04;24.45;;;17.67;;
42384;SDS011;28042;43.986;22.860;2023-02-28T07:45:30;26.88;;;19.98;;
42384;SDS011;28042;43.986;22.860;2023-02-28T07:47:56;28.08;;;21.75;;
42384;SDS011;28042;43.986;22.860;2023-02-28T07:50:22;28.42;;;21.80;;
42384;SDS011;28042;43.986;22.860;2023-02-28T07:52:47;37.05;;;24.17;;
42384;SDS011;28042;43.986;22.860;2023-02-28T07:55:13;31.08;;;18.95;;
42384;SDS011;28042;43.986;22.860;2023-02-28T07:57:39;37.45;;;25.45;;
42384;SDS011;28042;43.986;22.860;2023-02-28T08:00:07;25.50;;;19.47;;
42384;SDS011;28042;43.986;22.860;2023-02-28T08:02:37;28.70;;;21.52;;
42384;SDS011;28042;43.986;22.860;2023-02-28T08:05:03;22.20;;;16.42;;
42384;SDS011;28042;43.986;22.860;2023-02-28T08:07:29;25.98;;;18.95;;
42384;SDS011;28042;43.986;22.860;2023-02-28T08:09:55;24.67;;;17.73;;
42384;SDS011;28042;43.986;22.860;2023-02-28T08:12:20;20.80;;;15.98;;
42384;SDS011;28042;43.986;22.860;2023-02-28T08:14:46;30.75;;;22.17;;
42384;SDS011;28042;43.986;22.860;2023-02-28T08:17:11;27.58;;;19.15;;
42384;SDS011;28042;43.986;22.860;2023-02-28T08:19:37;20.95;;;15.30;;
42384;SDS011;28042;43.986;22.860;2023-02-28T08:22:03;23.77;;;17.50;;
42384;SDS011;28042;43.986;22.860;2023-02-28T08:24:29;26.42;;;19.33;;
42384;SDS011;28042;43.986;22.860;2023-02-28T08:26:55;77.80;;;42.40;;
42384;SDS011;28042;43.986;22.860;2023-02-28T08:29:21;26.05;;;17.45;;
42384;SDS011;28042;43.986;22.860;2023-02-28T08:31:46;33.08;;;21.27;;
42384;SDS011;28042;43.986;22.860;2023-02-28T08:34:12;25.75;;;15.98;;
42384;SDS011;28042;43.986;22.860;2023-02-28T08:36:39;31.42;;;23.67;;
42384;SDS011;28042;43.986;22.860;2023-02-28T08:39:05;27.15;;;19.23;;
42384;SDS011;28042;43.986;22.860;2023-02-28T08:41:32;28.58;;;20.00;;
42384;SDS011;28042;43.986;22.860;2023-02-28T08:43:58;26.27;;;19.17;;
42384;SDS011;28042;43.986;22.860;2023-02-28T08:46:25;25.87;;;18.57;;
42384;SDS011;28042;43.986;22.860;2023-02-28T08:48:51;28.60;;;20.73;;
42384;SDS011;28042;43.986;22.860;2023-02-28T08:53:50;35.25;;;25.08;;
42384;SDS011;28042;43.986;22.860;2023-02-28T08:56:17;38.60;;;25.70;;
42384;SDS011;28042;43.986;22.860;2023-02-28T08:58:43;37.85;;;28.05;;
42384;SDS011;28042;43.986;22.860;2023-02-28T09:01:14;28.42;;;21.83;;
42384;SDS011;28042;43.986;22.860;2023-02-28T09:03:42;31.33;;;22.77;;
42384;SDS011;28042;43.986;22.860;2023-02-28T09:06:08;28.30;;;20.48;;
42384;SDS011;28042;43.986;22.860;2023-02-28T09:08:36;31.13;;;22.08;;
42384;SDS011;28042;43.986;22.860;2023-02-28T09:11:02;33.38;;;24.30;;
42384;SDS011;28042;43.986;22.860;2023-02-28T09:13:28;33.72;;;24.38;;
42384;SDS011;28042;43.986;22.860;2023-02-28T09:15:57;34.87;;;23.70;;
42384;SDS011;28042;43.986;22.860;2023-02-28T09:18:24;32.15;;;21.20;;
42384;SDS011;28042;43.986;22.860;2023-02-28T09:20:51;36.28;;;23.20;;
42384;SDS011;28042;43.986;22.860;2023-02-28T09:23:17;32.08;;;22.05;;
42384;SDS011;28042;43.986;22.860;2023-02-28T09:25:46;34.70;;;22.05;;
42384;SDS011;28042;43.986;22.860;2023-02-28T09:28:15;35.00;;;24.15;;
42384;SDS011;28042;43.986;22.860;2023-02-28T09:30:42;34.15;;;24.05;;
42384;SDS011;28042;43.986;22.860;2023-02-28T09:33:11;35.17;;;25.92;;
42384;SDS011;28042;43.986;22.860;2023-02-28T09:35:38;31.30;;;21.35;;
42384;SDS011;28042;43.986;22.860;2023-02-28T09:38:04;31.98;;;22.98;;
42384;SDS011;28042;43.986;22.860;2023-02-28T09:40:30;33.35;;;22.88;;
42384;SDS011;28042;43.986;22.860;2023-02-28T09:42:56;37.80;;;24.73;;
42384;SDS011;28042;43.986;22.860;2023-02-28T09:45:39;36.20;;;23.65;;
42384;SDS011;28042;43.986;22.860;2023-02-28T09:48:12;39.30;;;26.52;;
42384;SDS011;28042;43.986;22.860;2023-02-28T09:50:50;33.72;;;23.17;;
42384;SDS011;28042;43.986;22.860;2023-02-28T09:53:33;37.40;;;23.05;;
42384;SDS011;28042;43.986;22.860;2023-02-28T09:56:18;34.97;;;23.00;;
42384;SDS011;28042;43.986;22.860;2023-02-28T09:58:55;35.85;;;25.08;;
42384;SDS011;28042;43.986;22.860;2023-02-28T10:04:28;44.17;;;28.45;;
42384;SDS011;28042;43.986;22.860;2023-02-28T10:07:06;40.47;;;28.13;;
42384;SDS011;28042;43.986;22.860;2023-02-28T10:09:43;42.45;;;26.45;;
42384;SDS011;28042;43.986;22.860;2023-02-28T10:12:11;93.63;;;47.28;;
42384;SDS011;28042;43.986;22.860;2023-02-28T10:14:40;54.25;;;34.10;;
42384;SDS011;28042;43.986;22.860;2023-02-28T10:17:19;59.42;;;34.45;;
42384;SDS011;28042;43.986;22.860;2023-02-28T10:22:41;38.92;;;24.60;;
42384;SDS011;28042;43.986;22.860;2023-02-28T10:25:43;37.75;;;26.73;;
42384;SDS011;28042;43.986;22.860;2023-02-28T10:28:15;43.28;;;29.70;;
42384;SDS011;28042;43.986;22.860;2023-02-28T10:30:46;50.45;;;30.90;;
42384;SDS011;28042;43.986;22.860;2023-02-28T10:35:48;48.10;;;31.17;;
42384;SDS011;28042;43.986;22.860;2023-02-28T10:41:10;47.38;;;30.73;;
42384;SDS011;28042;43.986;22.860;2023-02-28T10:43:39;50.22;;;29.92;;
42384;SDS011;28042;43.986;22.860;2023-02-28T10:51:33;45.45;;;31.65;;
42384;SDS011;28042;43.986;22.860;2023-02-28T10:54:01;43.85;;;29.88;;
42384;SDS011;28042;43.986;22.860;2023-02-28T10:56:28;42.28;;;29.17;;
42384;SDS011;28042;43.986;22.860;2023-02-28T10:58:56;43.70;;;31.20;;
42384;SDS011;28042;43.986;22.860;2023-02-28T11:01:27;44.20;;;29.25;;
42384;SDS011;28042;43.986;22.860;2023-02-28T11:06:46;39.78;;;27.10;;
42384;SDS011;28042;43.986;22.860;2023-02-28T11:11:50;40.35;;;28.35;;
42384;SDS011;28042;43.986;22.860;2023-02-28T11:14:24;40.33;;;28.23;;
42384;SDS011;28042;43.986;22.860;2023-02-28T11:16:52;48.90;;;31.13;;
42384;SDS011;28042;43.986;22.860;2023-02-28T11:19:25;45.10;;;31.17;;
42384;SDS011;28042;43.986;22.860;2023-02-28T11:21:59;41.75;;;29.70;;
42384;SDS011;28042;43.986;22.860;2023-02-28T11:24:34;39.15;;;28.85;;
42384;SDS011;28042;43.986;22.860;2023-02-28T11:27:02;46.45;;;31.75;;
42384;SDS011;28042;43.986;22.860;2023-02-28T11:29:29;44.75;;;31.10;;
42384;SDS011;28042;43.986;22.860;2023-02-28T11:34:41;35.42;;;24.75;;
42384;SDS011;28042;43.986;22.860;2023-02-28T11:37:18;33.30;;;23.48;;
42384;SDS011;28042;43.986;22.860;2023-02-28T11:39:44;33.30;;;22.85;;
42384;SDS011;28042;43.986;22.860;2023-02-28T11:42:15;36.70;;;25.98;;
42384;SDS011;28042;43.986;22.860;2023-02-28T11:47:53;54.38;;;32.67;;
42384;SDS011;28042;43.986;22.860;2023-02-28T11:52:57;39.22;;;26.58;;
42384;SDS011;28042;43.986;22.860;2023-02-28T12:04:08;57.38;;;39.95;;
42384;SDS011;28042;43.986;22.860;2023-02-28T12:06:48;42.55;;;27.95;;
42384;SDS011;28042;43.986;22.860;2023-02-28T12:12:29;32.72;;;23.20;;
42384;SDS011;28042;43.986;22.860;2023-02-28T12:18:20;38.67;;;28.30;;
42384;SDS011;28042;43.986;22.860;2023-02-28T12:21:15;40.88;;;29.35;;
42384;SDS011;28042;43.986;22.860;2023-02-28T12:26:54;37.38;;;25.10;;
42384;SDS011;28042;43.986;22.860;2023-02-28T12:29:26;33.08;;;23.38;;
42384;SDS011;28042;43.986;22.860;2023-02-28T12:34:50;28.58;;;21.25;;
42384;SDS011;28042;43.986;22.860;2023-02-28T12:37:41;28.25;;;21.13;;
42384;SDS011;28042;43.986;22.860;2023-02-28T12:42:45;34.13;;;22.30;;
42384;SDS011;28042;43.986;22.860;2023-02-28T12:47:44;29.40;;;20.33;;
42384;SDS011;28042;43.986;22.860;2023-02-28T12:50:15;28.13;;;20.77;;
42384;SDS011;28042;43.986;22.860;2023-02-28T12:55:23;29.92;;;20.58;;
42384;SDS011;28042;43.986;22.860;2023-02-28T13:00:25;31.00;;;21.63;;
42384;SDS011;28042;43.986;22.860;2023-02-28T13:06:01;37.88;;;26.70;;
42384;SDS011;28042;43.986;22.860;2023-02-28T13:09:09;43.08;;;26.30;;
42384;SDS011;28042;43.986;22.860;2023-02-28T13:11:44;40.95;;;26.73;;
42384;SDS011;28042;43.986;22.860;2023-02-28T13:19:18;43.63;;;28.90;;
42384;SDS011;28042;43.986;22.860;2023-02-28T13:21:48;46.17;;;32.78;;
42384;SDS011;28042;43.986;22.860;2023-02-28T13:29:32;34.55;;;23.55;;
42384;SDS011;28042;43.986;22.860;2023-02-28T13:34:35;44.60;;;28.88;;
42384;SDS011;28042;43.986;22.860;2023-02-28T13:39:46;41.88;;;26.88;;
42384;SDS011;28042;43.986;22.860;2023-02-28T13:47:39;33.03;;;21.30;;
42384;SDS011;28042;43.986;22.860;2023-02-28T13:55:24;38.03;;;23.67;;
42384;SDS011;28042;43.986;22.860;2023-02-28T13:58:04;41.13;;;25.42;;
42384;SDS011;28042;43.986;22.860;2023-02-28T14:03:26;37.33;;;24.63;;
42384;SDS011;28042;43.986;22.860;2023-02-28T14:06:21;36.95;;;24.10;;
42384;SDS011;28042;43.986;22.860;2023-02-28T14:11:41;34.53;;;23.30;;
42384;SDS011;28042;43.986;22.860;2023-02-28T14:14:09;35.80;;;26.20;;
42384;SDS011;28042;43.986;22.860;2023-02-28T14:16:54;45.53;;;28.92;;
42384;SDS011;28042;43.986;22.860;2023-02-28T14:19:23;41.63;;;27.30;;
42384;SDS011;28042;43.986;22.860;2023-02-28T14:22:07;41.35;;;25.58;;
42384;SDS011;28042;43.986;22.860;2023-02-28T14:24:42;44.63;;;27.52;;
42384;SDS011;28042;43.986;22.860;2023-02-28T14:33:04;47.45;;;32.78;;
42384;SDS011;28042;43.986;22.860;2023-02-28T14:35:43;47.10;;;29.65;;
42384;SDS011;28042;43.986;22.860;2023-02-28T14:38:14;50.88;;;31.67;;
42384;SDS011;28042;43.986;22.860;2023-02-28T14:41:03;44.35;;;25.67;;
42384;SDS011;28042;43.986;22.860;2023-02-28T14:43:36;49.20;;;33.40;;
42384;SDS011;28042;43.986;22.860;2023-02-28T14:46:12;47.95;;;30.98;;
42384;SDS011;28042;43.986;22.860;2023-02-28T14:48:39;43.08;;;29.17;;
42384;SDS011;28042;43.986;22.860;2023-02-28T14:51:04;46.22;;;29.98;;
42384;SDS011;28042;43.986;22.860;2023-02-28T14:53:30;45.42;;;30.95;;
42384;SDS011;28042;43.986;22.860;2023-02-28T14:56:02;41.22;;;28.50;;
42384;SDS011;28042;43.986;22.860;2023-02-28T14:58:30;50.72;;;30.48;;
42384;SDS011;28042;43.986;22.860;2023-02-28T15:00:58;49.50;;;29.65;;
42384;SDS011;28042;43.986;22.860;2023-02-28T15:05:55;46.75;;;30.02;;
42384;SDS011;28042;43.986;22.860;2023-02-28T15:08:25;58.13;;;37.72;;
42384;SDS011;28042;43.986;22.860;2023-02-28T15:13:19;53.75;;;32.08;;
42384;SDS011;28042;43.986;22.860;2023-02-28T15:18:21;55.10;;;32.30;;
42384;SDS011;28042;43.986;22.860;2023-02-28T15:21:07;53.25;;;31.60;;
42384;SDS011;28042;43.986;22.860;2023-02-28T15:23:38;46.10;;;30.20;;
42384;SDS011;28042;43.986;22.860;2023-02-28T15:26:10;55.70;;;33.25;;
42384;SDS011;28042;43.986;22.860;2023-02-28T15:28:42;63.60;;;38.58;;
42384;SDS011;28042;43.986;22.860;2023-02-28T15:33:54;53.30;;;32.03;;
42384;SDS011;28042;43.986;22.860;2023-02-28T15:36:24;54.70;;;34.00;;
42384;SDS011;28042;43.986;22.860;2023-02-28T15:38:52;55.33;;;35.58;;
42384;SDS011;28042;43.986;22.860;2023-02-28T15:47:00;60.30;;;37.97;;
42384;SDS011;28042;43.986;22.860;2023-02-28T15:49:39;60.50;;;37.47;;
42384;SDS011;28042;43.986;22.860;2023-02-28T15:52:12;73.55;;;44.53;;
42384;SDS011;28042;43.986;22.860;2023-02-28T15:54:42;59.63;;;38.63;;
42384;SDS011;28042;43.986;22.860;2023-02-28T15:57:16;59.35;;;35.53;;
42384;SDS011;28042;43.986;22.860;2023-02-28T15:59:49;55.88;;;32.08;;
42384;SDS011;28042;43.986;22.860;2023-02-28T16:02:19;58.38;;;33.03;;
42384;SDS011;28042;43.986;22.860;2023-02-28T16:04:56;58.20;;;37.45;;
42384;SDS011;28042;43.986;22.860;2023-02-28T16:07:23;53.15;;;32.65;;
42384;SDS011;28042;43.986;22.860;2023-02-28T16:09:49;54.35;;;34.53;;
42384;SDS011;28042;43.986;22.860;2023-02-28T16:12:15;55.58;;;34.15;;
42384;SDS011;28042;43.986;22.860;2023-02-28T16:14:41;54.72;;;32.13;;
42384;SDS011;28042;43.986;22.860;2023-02-28T16:17:16;57.55;;;35.38;;
42384;SDS011;28042;43.986;22.860;2023-02-28T16:19:53;66.95;;;33.67;;
42384;SDS011;28042;43.986;22.860;2023-02-28T16:22:19;57.23;;;33.07;;
42384;SDS011;28042;43.986;22.860;2023-02-28T16:24:45;53.90;;;35.70;;
42384;SDS011;28042;43.986;22.860;2023-02-28T16:27:21;66.28;;;37.83;;
42384;SDS011;28042;43.986;22.860;2023-02-28T16:29:49;63.95;;;37.63;;
42384;SDS011;28042;43.986;22.860;2023-02-28T16:32:15;70.88;;;42.08;;
42384;SDS011;28042;43.986;22.860;2023-02-28T16:34:41;68.80;;;43.03;;
42384;SDS011;28042;43.986;22.860;2023-02-28T16:37:12;66.32;;;39.40;;
42384;SDS011;28042;43.986;22.860;2023-02-28T16:39:39;68.90;;;40.63;;
42384;SDS011;28042;43.986;22.860;2023-02-28T16:42:05;60.72;;;38.45;;
42384;SDS011;28042;43.986;22.860;2023-02-28T16:44:32;68.63;;;42.72;;
42384;SDS011;28042;43.986;22.860;2023-02-28T16:47:00;72.00;;;42.78;;
42384;SDS011;28042;43.986;22.860;2023-02-28T16:49:26;74.22;;;44.05;;
42384;SDS011;28042;43.986;22.860;2023-02-28T16:51:52;66.85;;;41.28;;
42384;SDS011;28042;43.986;22.860;2023-02-28T16:54:17;73.55;;;43.20;;
42384;SDS011;28042;43.986;22.860;2023-02-28T16:56:44;74.68;;;43.50;;
42384;SDS011;28042;43.986;22.860;2023-02-28T16:59:11;67.70;;;38.20;;
42384;SDS011;28042;43.986;22.860;2023-02-28T17:01:37;78.80;;;46.15;;
42384;SDS011;28042;43.986;22.860;2023-02-28T17:04:03;69.22;;;43.53;;
42384;SDS011;28042;43.986;22.860;2023-02-28T17:06:29;71.10;;;40.80;;
42384;SDS011;28042;43.986;22.860;2023-02-28T17:08:56;72.63;;;43.45;;
42384;SDS011;28042;43.986;22.860;2023-02-28T17:11:23;82.03;;;46.88;;
42384;SDS011;28042;43.986;22.860;2023-02-28T17:13:49;74.33;;;44.63;;
42384;SDS011;28042;43.986;22.860;2023-02-28T17:16:36;76.85;;;45.60;;
42384;SDS011;28042;43.986;22.860;2023-02-28T17:19:02;74.90;;;45.20;;
42384;SDS011;28042;43.986;22.860;2023-02-28T17:21:30;74.65;;;44.63;;
42384;SDS011;28042;43.986;22.860;2023-02-28T17:23:56;77.03;;;44.70;;
42384;SDS011;28042;43.986;22.860;2023-02-28T17:26:22;85.82;;;50.58;;
42384;SDS011;28042;43.986;22.860;2023-02-28T17:28:52;75.97;;;43.15;;
42384;SDS011;28042;43.986;22.860;2023-02-28T17:31:20;81.07;;;46.78;;
42384;SDS011;28042;43.986;22.860;2023-02-28T17:33:50;67.80;;;41.72;;
42384;SDS011;28042;43.986;22.860;2023-02-28T17:36:17;81.75;;;47.10;;
42384;SDS011;28042;43.986;22.860;2023-02-28T17:38:48;71.72;;;43.65;;
42384;SDS011;28042;43.986;22.860;2023-02-28T17:41:14;78.00;;;45.22;;
42384;SDS011;28042;43.986;22.860;2023-02-28T17:43:39;75.90;;;45.00;;
42384;SDS011;28042;43.986;22.860;2023-02-28T17:46:06;74.22;;;44.25;;
42384;SDS011;28042;43.986;22.860;2023-02-28T17:48:49;86.05;;;46.97;;
42384;SDS011;28042;43.986;22.860;2023-02-28T17:51:17;81.15;;;47.92;;
42384;SDS011;28042;43.986;22.860;2023-02-28T17:53:44;84.57;;;49.10;;
42384;SDS011;28042;43.986;22.860;2023-02-28T17:56:14;77.85;;;45.78;;
42384;SDS011;28042;43.986;22.860;2023-02-28T17:58:42;83.00;;;46.38;;
42384;SDS011;28042;43.986;22.860;2023-02-28T18:01:08;83.78;;;47.05;;
42384;SDS011;28042;43.986;22.860;2023-02-28T18:03:33;85.70;;;47.88;;
42384;SDS011;28042;43.986;22.860;2023-02-28T18:05:59;91.65;;;50.38;;
42384;SDS011;28042;43.986;22.860;2023-02-28T18:08:25;82.57;;;48.55;;
42384;SDS011;28042;43.986;22.860;2023-02-28T18:10:51;86.00;;;49.15;;
42384;SDS011;28042;43.986;22.860;2023-02-28T18:13:17;73.32;;;45.45;;
42384;SDS011;28042;43.986;22.860;2023-02-28T18:15:42;76.18;;;45.50;;
42384;SDS011;28042;43.986;22.860;2023-02-28T18:18:08;74.05;;;45.00;;
42384;SDS011;28042;43.986;22.860;2023-02-28T18:20:34;72.30;;;42.63;;
42384;SDS011;28042;43.986;22.860;2023-02-28T18:22:59;78.45;;;46.42;;
42384;SDS011;28042;43.986;22.860;2023-02-28T18:25:25;74.88;;;45.70;;
42384;SDS011;28042;43.986;22.860;2023-02-28T18:27:51;83.00;;;45.03;;
42384;SDS011;28042;43.986;22.860;2023-02-28T18:30:26;76.05;;;43.42;;
42384;SDS011;28042;43.986;22.860;2023-02-28T18:32:55;83.88;;;45.00;;
42384;SDS011;28042;43.986;22.860;2023-02-28T18:35:24;82.22;;;46.08;;
42384;SDS011;28042;43.986;22.860;2023-02-28T18:38:10;83.28;;;47.72;;
42384;SDS011;28042;43.986;22.860;2023-02-28T18:40:40;79.32;;;43.60;;
42384;SDS011;28042;43.986;22.860;2023-02-28T18:43:08;76.80;;;42.22;;
42384;SDS011;28042;43.986;22.860;2023-02-28T18:45:37;78.82;;;44.80;;
42384;SDS011;28042;43.986;22.860;2023-02-28T18:48:03;76.10;;;43.42;;
42384;SDS011;28042;43.986;22.860;2023-02-28T18:50:30;84.90;;;45.55;;
42384;SDS011;28042;43.986;22.860;2023-02-28T18:52:56;79.03;;;44.05;;
42384;SDS011;28042;43.986;22.860;2023-02-28T18:55:26;78.45;;;43.45;;
42384;SDS011;28042;43.986;22.860;2023-02-28T18:57:52;80.72;;;43.40;;
42384;SDS011;28042;43.986;22.860;2023-02-28T19:00:18;78.07;;;43.33;;
42384;SDS011;28042;43.986;22.860;2023-02-28T19:02:47;73.72;;;40.55;;
42384;SDS011;28042;43.986;22.860;2023-02-28T19:05:14;83.25;;;44.92;;
42384;SDS011;28042;43.986;22.860;2023-02-28T19:07:40;79.88;;;43.83;;
42384;SDS011;28042;43.986;22.860;2023-02-28T19:10:05;78.78;;;43.78;;
42384;SDS011;28042;43.986;22.860;2023-02-28T19:12:32;82.60;;;44.53;;
42384;SDS011;28042;43.986;22.860;2023-02-28T19:15:05;80.20;;;44.53;;
42384;SDS011;28042;43.986;22.860;2023-02-28T19:17:31;87.15;;;45.63;;
42384;SDS011;28042;43.986;22.860;2023-02-28T19:19:57;71.85;;;41.67;;
42384;SDS011;28042;43.986;22.860;2023-02-28T19:22:23;80.85;;;45.58;;
42384;SDS011;28042;43.986;22.860;2023-02-28T19:27:16;79.15;;;43.33;;
42384;SDS011;28042;43.986;22.860;2023-02-28T19:29:47;76.28;;;42.33;;
42384;SDS011;28042;43.986;22.860;2023-02-28T19:32:14;81.60;;;44.80;;
42384;SDS011;28042;43.986;22.860;2023-02-28T19:34:40;78.72;;;40.28;;
42384;SDS011;28042;43.986;22.860;2023-02-28T19:37:05;77.43;;;43.17;;
42384;SDS011;28042;43.986;22.860;2023-02-28T19:39:31;80.75;;;45.92;;
42384;SDS011;28042;43.986;22.860;2023-02-28T19:42:08;79.72;;;44.22;;
42384;SDS011;28042;43.986;22.860;2023-02-28T19:44:35;84.38;;;44.17;;
42384;SDS011;28042;43.986;22.860;2023-02-28T19:47:00;87.60;;;45.58;;
42384;SDS011;28042;43.986;22.860;2023-02-28T19:49:27;80.45;;;42.55;;
42384;SDS011;28042;43.986;22.860;2023-02-28T19:51:52;83.28;;;44.85;;
42384;SDS011;28042;43.986;22.860;2023-02-28T19:54:18;77.00;;;39.65;;
42384;SDS011;28042;43.986;22.860;2023-02-28T19:56:43;80.45;;;42.92;;
42384;SDS011;28042;43.986;22.860;2023-02-28T19:59:09;79.30;;;42.72;;
42384;SDS011;28042;43.986;22.860;2023-02-28T20:01:34;90.95;;;46.35;;
42384;SDS011;28042;43.986;22.860;2023-02-28T20:04:00;86.72;;;44.13;;
42384;SDS011;28042;43.986;22.860;2023-02-28T20:06:29;82.82;;;43.75;;
42384;SDS011;28042;43.986;22.860;2023-02-28T20:08:56;84.28;;;45.13;;
42384;SDS011;28042;43.986;22.860;2023-02-28T20:11:23;87.80;;;44.20;;
42384;SDS011;28042;43.986;22.860;2023-02-28T20:13:53;90.60;;;46.90;;
42384;SDS011;28042;43.986;22.860;2023-02-28T20:16:18;92.78;;;46.03;;
42384;SDS011;28042;43.986;22.860;2023-02-28T20:18:48;86.40;;;46.80;;
42384;SDS011;28042;43.986;22.860;2023-02-28T20:21:15;97.13;;;48.72;;
42384;SDS011;28042;43.986;22.860;2023-02-28T20:23:42;89.10;;;45.28;;
42384;SDS011;28042;43.986;22.860;2023-02-28T20:26:09;94.70;;;47.63;;
42384;SDS011;28042;43.986;22.860;2023-02-28T20:28:36;95.10;;;47.85;;
42384;SDS011;28042;43.986;22.860;2023-02-28T20:31:02;91.78;;;47.08;;
42384;SDS011;28042;43.986;22.860;2023-02-28T20:33:33;95.38;;;48.35;;
42384;SDS011;28042;43.986;22.860;2023-02-28T20:35:59;94.80;;;47.20;;
42384;SDS011;28042;43.986;22.860;2023-02-28T20:38:26;85.27;;;44.27;;
42384;SDS011;28042;43.986;22.860;2023-02-28T20:40:57;87.45;;;44.60;;
42384;SDS011;28042;43.986;22.860;2023-02-28T20:43:23;86.75;;;44.42;;
42384;SDS011;28042;43.986;22.860;2023-02-28T20:45:52;87.75;;;44.55;;
42384;SDS011;28042;43.986;22.860;2023-02-28T20:48:21;82.68;;;44.83;;
42384;SDS011;28042;43.986;22.860;2023-02-28T20:50:47;87.75;;;44.78;;
42384;SDS011;28042;43.986;22.860;2023-02-28T20:53:17;88.35;;;43.05;;
42384;SDS011;28042;43.986;22.860;2023-02-28T20:55:55;89.00;;;44.17;;
42384;SDS011;28042;43.986;22.860;2023-02-28T20:58:27;93.70;;;47.90;;
42384;SDS011;28042;43.986;22.860;2023-02-28T21:03:25;95.05;;;48.70;;
42384;SDS011;28042;43.986;22.860;2023-02-28T21:05:51;96.38;;;46.47;;
42384;SDS011;28042;43.986;22.860;2023-02-28T21:08:16;99.68;;;46.25;;
42384;SDS011;28042;43.986;22.860;2023-02-28T21:10:42;92.63;;;46.85;;
42384;SDS011;28042;43.986;22.860;2023-02-28T21:13:07;95.03;;;46.08;;
42384;SDS011;28042;43.986;22.860;2023-02-28T21:15:36;99.53;;;47.40;;
42384;SDS011;28042;43.986;22.860;2023-02-28T21:18:02;98.20;;;48.40;;
42384;SDS011;28042;43.986;22.860;2023-02-28T21:20:48;103.60;;;48.55;;
42384;SDS011;28042;43.986;22.860;2023-02-28T21:23:13;94.45;;;45.85;;
42384;SDS011;28042;43.986;22.860;2023-02-28T21:25:38;98.82;;;49.33;;
42384;SDS011;28042;43.986;22.860;2023-02-28T21:28:04;106.65;;;51.75;;
42384;SDS011;28042;43.986;22.860;2023-02-28T21:30:29;95.75;;;46.45;;
42384;SDS011;28042;43.986;22.860;2023-02-28T21:32:55;92.18;;;45.88;;
42384;SDS011;28042;43.986;22.860;2023-02-28T21:35:21;93.05;;;46.67;;
42384;SDS011;28042;43.986;22.860;2023-02-28T21:37:47;96.57;;;45.90;;
42384;SDS011;28042;43.986;22.860;2023-02-28T21:40:13;95.97;;;47.70;;
42384;SDS011;28042;43.986;22.860;2023-02-28T21:42:38;88.13;;;45.05;;
42384;SDS011;28042;43.986;22.860;2023-02-28T21:45:04;96.25;;;45.33;;
42384;SDS011;28042;43.986;22.860;2023-02-28T21:47:30;94.75;;;46.72;;
42384;SDS011;28042;43.986;22.860;2023-02-28T21:49:55;94.53;;;47.30;;
42384;SDS011;28042;43.986;22.860;2023-02-28T21:52:21;89.28;;;44.15;;
42384;SDS011;28042;43.986;22.860;2023-02-28T21:54:47;97.97;;;47.28;;
42384;SDS011;28042;43.986;22.860;2023-02-28T21:57:13;96.88;;;47.33;;
42384;SDS011;28042;43.986;22.860;2023-02-28T21:59:40;97.57;;;46.83;;
42384;SDS011;28042;43.986;22.860;2023-02-28T22:02:08;88.00;;;43.78;;
42384;SDS011;28042;43.986;22.860;2023-02-28T22:04:35;93.55;;;45.00;;
42384;SDS011;28042;43.986;22.860;2023-02-28T22:07:01;96.40;;;47.35;;
42384;SDS011;28042;43.986;22.860;2023-02-28T22:09:26;99.50;;;47.85;;
42384;SDS011;28042;43.986;22.860;2023-02-28T22:11:52;97.10;;;48.58;;
42384;SDS011;28042;43.986;22.860;2023-02-28T22:14:18;100.60;;;46.75;;
42384;SDS011;28042;43.986;22.860;2023-02-28T22:16:44;88.15;;;44.00;;
42384;SDS011;28042;43.986;22.860;2023-02-28T22:19:10;107.65;;;49.95;;
42384;SDS011;28042;43.986;22.860;2023-02-28T22:21:36;101.55;;;47.13;;
42384;SDS011;28042;43.986;22.860;2023-02-28T22:24:03;104.35;;;48.20;;
42384;SDS011;28042;43.986;22.860;2023-02-28T22:26:29;95.20;;;44.83;;
42384;SDS011;28042;43.986;22.860;2023-02-28T22:28:55;94.60;;;46.92;;
42384;SDS011;28042;43.986;22.860;2023-02-28T22:31:23;102.18;;;46.83;;
42384;SDS011;28042;43.986;22.860;2023-02-28T22:33:52;97.93;;;46.70;;
42384;SDS011;28042;43.986;22.860;2023-02-28T22:36:19;104.40;;;50.88;;
42384;SDS011;28042;43.986;22.860;2023-02-28T22:38:46;101.78;;;49.10;;
42384;SDS011;28042;43.986;22.860;2023-02-28T22:41:13;105.60;;;48.65;;
42384;SDS011;28042;43.986;22.860;2023-02-28T22:43:39;111.85;;;50.45;;
42384;SDS011;28042;43.986;22.860;2023-02-28T22:46:06;102.97;;;50.22;;
42384;SDS011;28042;43.986;22.860;2023-02-28T22:48:34;113.60;;;49.53;;
42384;SDS011;28042;43.986;22.860;2023-02-28T22:51:08;108.47;;;49.90;;
42384;SDS011;28042;43.986;22.860;2023-02-28T22:53:37;100.35;;;49.70;;
42384;SDS011;28042;43.986;22.860;2023-02-28T22:56:03;106.00;;;49.20;;
42384;SDS011;28042;43.986;22.860;2023-02-28T22:58:29;104.85;;;48.45;;
42384;SDS011;28042;43.986;22.860;2023-02-28T23:00:55;106.63;;;49.90;;
42384;SDS011;28042;43.986;22.860;2023-02-28T23:03:21;105.05;;;47.83;;
42384;SDS011;28042;43.986;22.860;2023-02-28T23:05:50;112.32;;;52.22;;
42384;SDS011;28042;43.986;22.860;2023-02-28T23:08:17;117.93;;;53.47;;
42384;SDS011;28042;43.986;22.860;2023-02-28T23:10:48;102.22;;;48.72;;
42384;SDS011;28042;43.986;22.860;2023-02-28T23:15:41;95.43;;;45.20;;
42384;SDS011;28042;43.986;22.860;2023-02-28T23:18:06;101.63;;;48.13;;
42384;SDS011;28042;43.986;22.860;2023-02-28T23:20:32;95.03;;;46.92;;